Los Nietos, California
Current Conditions -  °F | °C
As of 10:53 AM on Saturday 20 Dec 2014 (Local Time) from KFUL Reporting Station
Clear Clear  
Wind Chill: 62°   Ceiling: Unl
Heat Index: 62°   Visibility: 9mi
Dew Point: 48°   Wind: 0mph
Humidity: 60%   Direction: NA
Pressure: 30.18"   Gusts: NA
Location:  33.9685°N, 118.069°W
Report Text: KFUL 201853Z 00000KT 9SM CLR 17/09 A3018 RMK AO2 SLP217 T01670089
Loading
Personal Weather Stations






























Interactive Weather Map New forecast layout! Learn more

10-Day Weather Forecast

Advertisements
Track Severe Weather on mobile